sensor_id;sensor_type;location;lat;lon;timestamp;pressure;altitude;pressure_sealevel;temperature;humidity
55187;BME280;55457;52.002;5.464;2024-03-29T00:01:35;98831.97;;;19.71;42.49
55187;BME280;55457;52.002;5.464;2024-03-29T00:04:01;98825.75;;;19.70;42.35
55187;BME280;55457;52.002;5.464;2024-03-29T00:06:26;98819.53;;;19.70;42.19
55187;BME280;55457;52.002;5.464;2024-03-29T00:08:51;98821.44;;;19.69;42.36
55187;BME280;55457;52.002;5.464;2024-03-29T00:11:16;98824.94;;;19.70;42.36
55187;BME280;55457;52.002;5.464;2024-03-29T00:13:42;98826.06;;;19.69;42.39
55187;BME280;55457;52.002;5.464;2024-03-29T00:16:07;98831.47;;;19.69;42.34
55187;BME280;55457;52.002;5.464;2024-03-29T00:18:33;98831.47;;;19.69;42.45
55187;BME280;55457;52.002;5.464;2024-03-29T00:20:58;98836.06;;;19.68;42.49
55187;BME280;55457;52.002;5.464;2024-03-29T00:23:23;98839.56;;;19.69;42.75
55187;BME280;55457;52.002;5.464;2024-03-29T00:25:49;98821.72;;;19.68;42.36
55187;BME280;55457;52.002;5.464;2024-03-29T00:28:14;98833.34;;;19.68;42.42
55187;BME280;55457;52.002;5.464;2024-03-29T00:30:39;98832.53;;;19.68;42.46
55187;BME280;55457;52.002;5.464;2024-03-29T00:33:05;98829.81;;;19.68;42.50
55187;BME280;55457;52.002;5.464;2024-03-29T00:35:30;98839.81;;;19.67;42.36
55187;BME280;55457;52.002;5.464;2024-03-29T00:37:56;98846.34;;;19.66;42.35
55187;BME280;55457;52.002;5.464;2024-03-29T00:40:21;98852.53;;;19.67;42.48
55187;BME280;55457;52.002;5.464;2024-03-29T00:42:46;98857.94;;;19.67;42.30
55187;BME280;55457;52.002;5.464;2024-03-29T00:45:12;98847.94;;;19.67;42.16
55187;BME280;55457;52.002;5.464;2024-03-29T00:47:37;98856.34;;;19.66;42.36
55187;BME280;55457;52.002;5.464;2024-03-29T00:50:02;98846.34;;;19.66;42.54
55187;BME280;55457;52.002;5.464;2024-03-29T00:52:28;98849.31;;;19.65;42.42
55187;BME280;55457;52.002;5.464;2024-03-29T00:54:53;98859.03;;;19.66;42.45
55187;BME280;55457;52.002;5.464;2024-03-29T00:57:18;98848.28;;;19.61;42.39
55187;BME280;55457;52.002;5.464;2024-03-29T00:59:44;98867.94;;;19.66;42.36
55187;BME280;55457;52.002;5.464;2024-03-29T01:02:10;98864.75;;;19.64;42.57
55187;BME280;55457;52.002;5.464;2024-03-29T01:04:35;98866.63;;;19.64;42.38
55187;BME280;55457;52.002;5.464;2024-03-29T01:07:01;98874.75;;;19.64;42.43
55187;BME280;55457;52.002;5.464;2024-03-29T01:09:26;98857.72;;;19.63;42.44
55187;BME280;55457;52.002;5.464;2024-03-29T01:11:52;98858.53;;;19.64;42.42
55187;BME280;55457;52.002;5.464;2024-03-29T01:14:17;98866.63;;;19.64;42.47
55187;BME280;55457;52.002;5.464;2024-03-29T01:16:42;98860.13;;;19.65;42.36
55187;BME280;55457;52.002;5.464;2024-03-29T01:19:08;98856.63;;;19.64;42.36
55187;BME280;55457;52.002;5.464;2024-03-29T01:21:35;98853.13;;;19.64;42.49
55187;BME280;55457;52.002;5.464;2024-03-29T01:24:01;98846.09;;;19.63;42.38
55187;BME280;55457;52.002;5.464;2024-03-29T01:26:26;98847.72;;;19.64;42.38
55187;BME280;55457;52.002;5.464;2024-03-29T01:28:51;98854.19;;;19.63;42.45
55187;BME280;55457;52.002;5.464;2024-03-29T01:31:17;98845.28;;;19.62;42.51
55187;BME280;55457;52.002;5.464;2024-03-29T01:33:42;98833.97;;;19.60;42.37
55187;BME280;55457;52.002;5.464;2024-03-29T01:36:08;98837.97;;;19.63;42.40
55187;BME280;55457;52.002;5.464;2024-03-29T01:38:33;98839.09;;;19.62;42.50
55187;BME280;55457;52.002;5.464;2024-03-29T01:40:59;98834.47;;;19.62;42.31
55187;BME280;55457;52.002;5.464;2024-03-29T01:43:25;98829.88;;;19.63;42.37
55187;BME280;55457;52.002;5.464;2024-03-29T01:45:53;98834.47;;;19.62;42.38
55187;BME280;55457;52.002;5.464;2024-03-29T01:48:20;98837.19;;;19.62;42.54
55187;BME280;55457;52.002;5.464;2024-03-29T01:50:47;98828.28;;;19.62;42.51
55187;BME280;55457;52.002;5.464;2024-03-29T01:53:13;98807.75;;;19.61;42.62
55187;BME280;55457;52.002;5.464;2024-03-29T01:55:40;98804.25;;;19.60;42.51
55187;BME280;55457;52.002;5.464;2024-03-29T01:58:07;98799.66;;;19.61;42.52
55187;BME280;55457;52.002;5.464;2024-03-29T02:00:33;98803.94;;;19.62;42.48
55187;BME280;55457;52.002;5.464;2024-03-29T02:02:59;98803.44;;;19.60;42.51
55187;BME280;55457;52.002;5.464;2024-03-29T02:05:24;98805.06;;;19.61;42.29
55187;BME280;55457;52.002;5.464;2024-03-29T02:07:51;98802.34;;;19.61;42.66
55187;BME280;55457;52.002;5.464;2024-03-29T02:10:17;98815.06;;;19.60;42.55
55187;BME280;55457;52.002;5.464;2024-03-29T02:12:42;98810.44;;;19.61;42.58
55187;BME280;55457;52.002;5.464;2024-03-29T02:15:07;98814.25;;;19.60;42.37
55187;BME280;55457;52.002;5.464;2024-03-29T02:17:33;98815.06;;;19.60;42.42
55187;BME280;55457;52.002;5.464;2024-03-29T02:19:58;98825.88;;;19.60;42.56
55187;BME280;55457;52.002;5.464;2024-03-29T02:22:24;98828.84;;;19.59;42.58
55187;BME280;55457;52.002;5.464;2024-03-29T02:24:54;98828.84;;;19.59;42.54
55187;BME280;55457;52.002;5.464;2024-03-29T02:27:21;98825.06;;;19.60;42.34
55187;BME280;55457;52.002;5.464;2024-03-29T02:29:46;98838.56;;;19.60;42.49
55187;BME280;55457;52.002;5.464;2024-03-29T02:32:12;98840.47;;;19.59;42.58
55187;BME280;55457;52.002;5.464;2024-03-29T02:34:37;98851.28;;;19.59;42.54
55187;BME280;55457;52.002;5.464;2024-03-29T02:37:03;98839.41;;;19.55;42.51
55187;BME280;55457;52.002;5.464;2024-03-29T02:39:28;98848.84;;;19.58;42.64
55187;BME280;55457;52.002;5.464;2024-03-29T02:41:53;98848.00;;;19.57;42.56
55187;BME280;55457;52.002;5.464;2024-03-29T02:44:19;98850.44;;;19.59;42.43
55187;BME280;55457;52.002;5.464;2024-03-29T02:46:44;98850.44;;;19.59;42.54
55187;BME280;55457;52.002;5.464;2024-03-29T02:49:09;98846.13;;;19.58;42.45
55187;BME280;55457;52.002;5.464;2024-03-29T02:51:35;98842.34;;;19.59;42.56
55187;BME280;55457;52.002;5.464;2024-03-29T02:54:01;98841.81;;;19.56;42.48
55187;BME280;55457;52.002;5.464;2024-03-29T02:56:26;98843.44;;;19.58;42.50
55187;BME280;55457;52.002;5.464;2024-03-29T02:58:52;98847.22;;;19.56;42.53
55187;BME280;55457;52.002;5.464;2024-03-29T03:01:17;98843.44;;;19.58;42.43
55187;BME280;55457;52.002;5.464;2024-03-29T03:03:42;98846.13;;;19.58;42.56
55187;BME280;55457;52.002;5.464;2024-03-29T03:06:08;98852.59;;;19.56;42.53
55187;BME280;55457;52.002;5.464;2024-03-29T03:08:33;98847.22;;;19.56;42.64
55187;BME280;55457;52.002;5.464;2024-03-29T03:11:17;98839.09;;;19.56;42.40
55187;BME280;55457;52.002;5.464;2024-03-29T03:13:42;98840.19;;;19.55;42.69
55187;BME280;55457;52.002;5.464;2024-03-29T03:16:08;98844.78;;;19.55;42.46
55187;BME280;55457;52.002;5.464;2024-03-29T03:18:33;98852.59;;;19.56;42.57
55187;BME280;55457;52.002;5.464;2024-03-29T03:20:58;98851.00;;;19.55;42.67
55187;BME280;55457;52.002;5.464;2024-03-29T03:23:24;98861.81;;;19.55;42.64
55187;BME280;55457;52.002;5.464;2024-03-29T03:25:54;98853.72;;;19.55;42.61
55187;BME280;55457;52.002;5.464;2024-03-29T03:28:19;98865.63;;;19.54;42.72
55187;BME280;55457;52.002;5.464;2024-03-29T03:30:45;98861.00;;;19.55;42.76
55187;BME280;55457;52.002;5.464;2024-03-29T03:33:10;98853.72;;;19.55;42.60
55187;BME280;55457;52.002;5.464;2024-03-29T03:35:36;98864.50;;;19.55;42.78
55187;BME280;55457;52.002;5.464;2024-03-29T03:38:01;98861.00;;;19.55;42.65
55187;BME280;55457;52.002;5.464;2024-03-29T03:40:26;98861.81;;;19.55;42.56
55187;BME280;55457;52.002;5.464;2024-03-29T03:42:52;98860.22;;;19.54;42.83
55187;BME280;55457;52.002;5.464;2024-03-29T03:45:17;98867.22;;;19.55;42.70
55187;BME280;55457;52.002;5.464;2024-03-29T03:47:42;98869.91;;;19.55;42.67
55187;BME280;55457;52.002;5.464;2024-03-29T03:50:08;98867.22;;;19.55;42.81
55187;BME280;55457;52.002;5.464;2024-03-29T03:52:33;98856.41;;;19.55;42.97
55187;BME280;55457;52.002;5.464;2024-03-29T03:54:58;98861.53;;;19.57;42.97
55187;BME280;55457;52.002;5.464;2024-03-29T03:57:24;98874.22;;;19.56;43.04
55187;BME280;55457;52.002;5.464;2024-03-29T03:59:50;98875.03;;;19.57;42.76
55187;BME280;55457;52.002;5.464;2024-03-29T04:02:15;98867.75;;;19.58;42.82
55187;BME280;55457;52.002;5.464;2024-03-29T04:04:40;98875.84;;;19.58;42.84
55187;BME280;55457;52.002;5.464;2024-03-29T04:07:06;98881.25;;;19.58;42.88
55187;BME280;55457;52.002;5.464;2024-03-29T04:09:31;98870.47;;;19.58;42.84
55187;BME280;55457;52.002;5.464;2024-03-29T04:11:56;98882.06;;;19.58;42.94
55187;BME280;55457;52.002;5.464;2024-03-29T04:14:22;98888.28;;;19.59;42.74
55187;BME280;55457;52.002;5.464;2024-03-29T04:16:47;98877.47;;;19.59;42.88
55187;BME280;55457;52.002;5.464;2024-03-29T04:19:13;98875.84;;;19.58;42.90
55187;BME280;55457;52.002;5.464;2024-03-29T04:21:38;98872.06;;;19.59;42.55
55187;BME280;55457;52.002;5.464;2024-03-29T04:24:03;98869.38;;;19.59;42.67
55187;BME280;55457;52.002;5.464;2024-03-29T04:26:32;98875.31;;;19.61;42.72
55187;BME280;55457;52.002;5.464;2024-03-29T04:28:58;98873.69;;;19.60;42.90
55187;BME280;55457;52.002;5.464;2024-03-29T04:31:23;98862.63;;;19.56;42.81
55187;BME280;55457;52.002;5.464;2024-03-29T04:33:48;98870.19;;;19.59;42.79
55187;BME280;55457;52.002;5.464;2024-03-29T04:36:13;98874.50;;;19.60;42.74
55187;BME280;55457;52.002;5.464;2024-03-29T04:38:39;98877.47;;;19.59;42.69
55187;BME280;55457;52.002;5.464;2024-03-29T04:41:04;98872.06;;;19.59;42.84
55187;BME280;55457;52.002;5.464;2024-03-29T04:43:29;98882.06;;;19.58;42.70
55187;BME280;55457;52.002;5.464;2024-03-29T04:46:07;98873.16;;;19.58;42.69
55187;BME280;55457;52.002;5.464;2024-03-29T04:48:34;98852.34;;;19.58;42.69
55187;BME280;55457;52.002;5.464;2024-03-29T04:51:00;98871.53;;;19.56;42.47
55187;BME280;55457;52.002;5.464;2024-03-29T04:53:25;98868.81;;;19.56;42.89
55187;BME280;55457;52.002;5.464;2024-03-29T04:55:54;98879.63;;;19.56;42.86
55187;BME280;55457;52.002;5.464;2024-03-29T04:58:22;98888.84;;;19.55;42.63
55187;BME280;55457;52.002;5.464;2024-03-29T05:00:48;98888.84;;;19.55;42.72
55187;BME280;55457;52.002;5.464;2024-03-29T05:03:14;98887.22;;;19.54;42.69
55187;BME280;55457;52.002;5.464;2024-03-29T05:05:39;98881.53;;;19.56;42.81
55187;BME280;55457;52.002;5.464;2024-03-29T05:08:05;98871.00;;;19.54;42.65
55187;BME280;55457;52.002;5.464;2024-03-29T05:10:30;98872.63;;;19.55;42.71
55187;BME280;55457;52.002;5.464;2024-03-29T05:12:55;98877.22;;;19.55;42.71
55187;BME280;55457;52.002;5.464;2024-03-29T05:15:21;98887.22;;;19.54;42.79
55187;BME280;55457;52.002;5.464;2024-03-29T05:17:46;98892.63;;;19.54;42.65
55187;BME280;55457;52.002;5.464;2024-03-29T05:20:11;98889.94;;;19.54;42.75
55187;BME280;55457;52.002;5.464;2024-03-29T05:22:37;98886.13;;;19.55;42.81
55187;BME280;55457;52.002;5.464;2024-03-29T05:25:02;98891.81;;;19.54;42.91
55187;BME280;55457;52.002;5.464;2024-03-29T05:27:29;98903.44;;;19.54;42.48
55187;BME280;55457;52.002;5.464;2024-03-29T05:29:54;98908.84;;;19.54;43.01
55187;BME280;55457;52.002;5.464;2024-03-29T05:32:19;98929.66;;;19.54;42.94
55187;BME280;55457;52.002;5.464;2024-03-29T05:34:44;98935.06;;;19.54;42.80
55187;BME280;55457;52.002;5.464;2024-03-29T05:37:10;98939.66;;;19.53;43.04
55187;BME280;55457;52.002;5.464;2024-03-29T05:39:35;98935.84;;;19.54;42.91
55187;BME280;55457;52.002;5.464;2024-03-29T05:42:00;98934.75;;;19.55;42.89
55187;BME280;55457;52.002;5.464;2024-03-29T05:44:26;98938.56;;;19.54;42.97
55187;BME280;55457;52.002;5.464;2024-03-29T05:46:52;98933.16;;;19.54;42.98
55187;BME280;55457;52.002;5.464;2024-03-29T05:49:17;98939.66;;;19.53;42.90
55187;BME280;55457;52.002;5.464;2024-03-29T05:51:42;98952.06;;;19.54;42.98
55187;BME280;55457;52.002;5.464;2024-03-29T05:54:07;98963.97;;;19.53;43.05
55187;BME280;55457;52.002;5.464;2024-03-29T05:56:33;98959.38;;;19.54;43.10
55187;BME280;55457;52.002;5.464;2024-03-29T05:58:58;98957.47;;;19.54;43.03
55187;BME280;55457;52.002;5.464;2024-03-29T06:01:23;98950.47;;;19.53;42.98
55187;BME280;55457;52.002;5.464;2024-03-29T06:03:49;98952.06;;;19.54;42.79
55187;BME280;55457;52.002;5.464;2024-03-29T06:06:19;98954.81;;;19.49;43.16
55187;BME280;55457;52.002;5.464;2024-03-29T06:08:49;98971.28;;;19.53;42.94
55187;BME280;55457;52.002;5.464;2024-03-29T06:11:14;98966.69;;;19.53;42.97
55187;BME280;55457;52.002;5.464;2024-03-29T06:13:39;98971.28;;;19.53;42.95
55187;BME280;55457;52.002;5.464;2024-03-29T06:16:21;98969.63;;;19.52;43.01
55187;BME280;55457;52.002;5.464;2024-03-29T06:19:06;98969.63;;;19.52;43.00
55187;BME280;55457;52.002;5.464;2024-03-29T06:21:31;98969.63;;;19.52;43.21
55187;BME280;55457;52.002;5.464;2024-03-29T06:24:07;98970.47;;;19.52;43.06
55187;BME280;55457;52.002;5.464;2024-03-29T06:26:33;98970.47;;;19.52;43.16
55187;BME280;55457;52.002;5.464;2024-03-29T06:29:00;98957.50;;;19.49;43.24
55187;BME280;55457;52.002;5.464;2024-03-29T06:31:25;98971.81;;;19.50;43.13
55187;BME280;55457;52.002;5.464;2024-03-29T06:33:50;98970.47;;;19.52;43.13
55187;BME280;55457;52.002;5.464;2024-03-29T06:36:16;98974.25;;;19.51;43.03
55187;BME280;55457;52.002;5.464;2024-03-29T06:38:41;98979.63;;;19.51;43.10
55187;BME280;55457;52.002;5.464;2024-03-29T06:41:06;98982.34;;;19.51;43.21
55187;BME280;55457;52.002;5.464;2024-03-29T06:43:31;98974.25;;;19.51;43.10
55187;BME280;55457;52.002;5.464;2024-03-29T06:45:57;98971.53;;;19.51;43.29
55187;BME280;55457;52.002;5.464;2024-03-29T06:48:24;98974.25;;;19.51;43.35
55187;BME280;55457;52.002;5.464;2024-03-29T06:50:49;98968.84;;;19.51;43.17
55187;BME280;55457;52.002;5.464;2024-03-29T06:53:15;98956.41;;;19.50;43.17
55187;BME280;55457;52.002;5.464;2024-03-29T06:55:40;98965.63;;;19.49;43.28
55187;BME280;55457;52.002;5.464;2024-03-29T06:58:06;98953.72;;;19.50;43.29
55187;BME280;55457;52.002;5.464;2024-03-29T07:00:31;98950.22;;;19.50;43.25
55187;BME280;55457;52.002;5.464;2024-03-29T07:02:57;98951.00;;;19.50;43.29
55187;BME280;55457;52.002;5.464;2024-03-29T07:05:22;98961.03;;;19.50;43.24
55187;BME280;55457;52.002;5.464;2024-03-29T07:07:48;98951.00;;;19.50;43.19
55187;BME280;55457;52.002;5.464;2024-03-29T07:10:13;98956.41;;;19.50;43.14
55187;BME280;55457;52.002;5.464;2024-03-29T07:12:38;98953.72;;;19.50;43.24
55187;BME280;55457;52.002;5.464;2024-03-29T07:15:04;98961.81;;;19.50;43.37
55187;BME280;55457;52.002;5.464;2024-03-29T07:17:29;98969.94;;;19.50;43.37
55187;BME280;55457;52.002;5.464;2024-03-29T07:19:55;98963.72;;;19.50;43.36
55187;BME280;55457;52.002;5.464;2024-03-29T07:22:20;98971.03;;;19.49;43.35
55187;BME280;55457;52.002;5.464;2024-03-29T07:24:45;98967.22;;;19.50;43.30
55187;BME280;55457;52.002;5.464;2024-03-29T07:27:11;98964.53;;;19.50;43.30
55187;BME280;55457;52.002;5.464;2024-03-29T07:29:38;98977.22;;;19.50;43.38
55187;BME280;55457;52.002;5.464;2024-03-29T07:32:04;98984.25;;;19.51;43.41
55187;BME280;55457;52.002;5.464;2024-03-29T07:34:29;98987.22;;;19.49;43.42
55187;BME280;55457;52.002;5.464;2024-03-29T07:36:54;99004.25;;;19.50;43.37
55187;BME280;55457;52.002;5.464;2024-03-29T07:39:19;98995.06;;;19.51;43.33
55187;BME280;55457;52.002;5.464;2024-03-29T07:41:45;98992.63;;;19.49;43.38
55187;BME280;55457;52.002;5.464;2024-03-29T07:44:11;98982.63;;;19.50;43.36
55187;BME280;55457;52.002;5.464;2024-03-29T07:46:36;98984.25;;;19.51;43.43
55187;BME280;55457;52.002;5.464;2024-03-29T07:49:03;98994.25;;;19.50;43.38
55187;BME280;55457;52.002;5.464;2024-03-29T07:51:29;98993.94;;;19.52;43.54
55187;BME280;55457;52.002;5.464;2024-03-29T07:53:54;98990.44;;;19.51;43.49
55187;BME280;55457;52.002;5.464;2024-03-29T07:56:20;98984.81;;;19.48;43.39
55187;BME280;55457;52.002;5.464;2024-03-29T07:58:50;98995.06;;;19.51;43.48
55187;BME280;55457;52.002;5.464;2024-03-29T08:01:19;98986.69;;;19.52;43.51
55187;BME280;55457;52.002;5.464;2024-03-29T08:03:45;98992.09;;;19.52;43.62
55187;BME280;55457;52.002;5.464;2024-03-29T08:06:10;98977.47;;;19.53;43.35
55187;BME280;55457;52.002;5.464;2024-03-29T08:08:35;98972.88;;;19.54;43.38
55187;BME280;55457;52.002;5.464;2024-03-29T08:11:01;98970.69;;;19.56;43.61
55187;BME280;55457;52.002;5.464;2024-03-29T08:13:27;98975.56;;;19.59;43.63
55187;BME280;55457;52.002;5.464;2024-03-29T08:15:57;98974.75;;;19.59;43.48
55187;BME280;55457;52.002;5.464;2024-03-29T08:18:24;98984.50;;;19.60;43.47
55187;BME280;55457;52.002;5.464;2024-03-29T08:20:49;98996.09;;;19.60;43.47
55187;BME280;55457;52.002;5.464;2024-03-29T08:23:14;98983.38;;;19.61;43.71
55187;BME280;55457;52.002;5.464;2024-03-29T08:25:40;98991.19;;;19.62;43.70
55187;BME280;55457;52.002;5.464;2024-03-29T08:28:05;98999.31;;;19.62;44.64
55187;BME280;55457;52.002;5.464;2024-03-29T08:30:30;98985.25;;;19.65;46.63
55187;BME280;55457;52.002;5.464;2024-03-29T08:33:01;98984.41;;;19.70;48.92
55187;BME280;55457;52.002;5.464;2024-03-29T08:35:31;98994.63;;;19.73;50.47
55187;BME280;55457;52.002;5.464;2024-03-29T08:37:57;98998.97;;;19.74;49.21
55187;BME280;55457;52.002;5.464;2024-03-29T08:40:22;99007.59;;;19.76;47.80
55187;BME280;55457;52.002;5.464;2024-03-29T08:42:49;99010.59;;;19.74;48.48
55187;BME280;55457;52.002;5.464;2024-03-29T08:45:14;99012.19;;;19.75;48.18
55187;BME280;55457;52.002;5.464;2024-03-29T08:47:40;99003.78;;;19.77;48.19
55187;BME280;55457;52.002;5.464;2024-03-29T08:50:05;99000.81;;;19.78;47.96
55187;BME280;55457;52.002;5.464;2024-03-29T08:52:30;99009.69;;;19.84;47.44
55187;BME280;55457;52.002;5.464;2024-03-29T08:54:56;99015.31;;;19.88;46.90
55187;BME280;55457;52.002;5.464;2024-03-29T08:57:21;99009.34;;;19.91;46.62
55187;BME280;55457;52.002;5.464;2024-03-29T08:59:46;99006.63;;;19.96;46.63
55187;BME280;55457;52.002;5.464;2024-03-29T09:02:12;99007.38;;;20.01;46.62
55187;BME280;55457;52.002;5.464;2024-03-29T09:04:37;99018.13;;;20.06;46.40
55187;BME280;55457;52.002;5.464;2024-03-29T09:07:03;99020.00;;;20.11;46.55
55187;BME280;55457;52.002;5.464;2024-03-29T09:09:31;99024.25;;;20.17;46.31
55187;BME280;55457;52.002;5.464;2024-03-29T09:11:57;99030.41;;;20.23;46.22
55187;BME280;55457;52.002;5.464;2024-03-29T09:14:22;99025.50;;;20.25;46.24
55187;BME280;55457;52.002;5.464;2024-03-29T09:16:49;99024.44;;;20.26;46.01
55187;BME280;55457;52.002;5.464;2024-03-29T09:19:15;99018.16;;;20.30;45.98
55187;BME280;55457;52.002;5.464;2024-03-29T09:21:40;99026.00;;;20.32;45.89
55187;BME280;55457;52.002;5.464;2024-03-29T09:24:06;99033.03;;;20.33;45.91
55187;BME280;55457;52.002;5.464;2024-03-29T09:26:32;99044.88;;;20.37;45.80
55187;BME280;55457;52.002;5.464;2024-03-29T09:28:57;99039.47;;;20.37;45.73
55187;BME280;55457;52.002;5.464;2024-03-29T09:31:23;99048.09;;;20.39;45.58
55187;BME280;55457;52.002;5.464;2024-03-29T09:33:48;99061.88;;;20.43;45.70
55187;BME280;55457;52.002;5.464;2024-03-29T09:36:20;99053.16;;;20.46;45.92
55187;BME280;55457;52.002;5.464;2024-03-29T09:38:46;99052.94;;;20.47;45.62
55187;BME280;55457;52.002;5.464;2024-03-29T09:41:15;99059.41;;;20.46;45.53
55187;BME280;55457;52.002;5.464;2024-03-29T09:43:42;99044.84;;;20.42;45.44
55187;BME280;55457;52.002;5.464;2024-03-29T09:46:10;99061.56;;;20.44;45.67
55187;BME280;55457;52.002;5.464;2024-03-29T09:48:37;99062.16;;;20.41;45.55
55187;BME280;55457;52.002;5.464;2024-03-29T09:51:06;99055.72;;;20.37;45.59
55187;BME280;55457;52.002;5.464;2024-03-29T09:53:37;99069.00;;;20.33;45.37
55187;BME280;55457;52.002;5.464;2024-03-29T09:56:04;99066.84;;;20.30;45.67
55187;BME280;55457;52.002;5.464;2024-03-29T09:58:36;99074.44;;;20.28;45.48
55187;BME280;55457;52.002;5.464;2024-03-29T10:01:04;99074.44;;;20.28;45.47
55187;BME280;55457;52.002;5.464;2024-03-29T10:03:30;99073.66;;;20.28;45.53
55187;BME280;55457;52.002;5.464;2024-03-29T10:05:59;99068.25;;;20.28;45.36
55187;BME280;55457;52.002;5.464;2024-03-29T10:08:29;99067.69;;;20.31;45.28
55187;BME280;55457;52.002;5.464;2024-03-29T10:10:56;99065.47;;;20.33;45.26
55187;BME280;55457;52.002;5.464;2024-03-29T10:13:22;99049.75;;;20.35;45.37
55187;BME280;55457;52.002;5.464;2024-03-29T10:15:53;99050.22;;;20.47;45.38
55187;BME280;55457;52.002;5.464;2024-03-29T10:18:23;99056.09;;;20.54;45.50
55187;BME280;55457;52.002;5.464;2024-03-29T10:21:03;99052.28;;;20.55;45.41
55187;BME280;55457;52.002;5.464;2024-03-29T10:23:31;99049.31;;;20.57;45.14
55187;BME280;55457;52.002;5.464;2024-03-29T10:25:57;99060.66;;;20.59;45.37
55187;BME280;55457;52.002;5.464;2024-03-29T10:28:23;99057.59;;;20.66;45.21
55187;BME280;55457;52.002;5.464;2024-03-29T10:30:49;99068.34;;;20.71;45.16
55187;BME280;55457;52.002;5.464;2024-03-29T10:33:18;99059.81;;;20.82;44.92
55187;BME280;55457;52.002;5.464;2024-03-29T10:35:43;99059.75;;;20.88;45.08
55187;BME280;55457;52.002;5.464;2024-03-29T10:38:10;99053.53;;;20.87;45.17
55187;BME280;55457;52.002;5.464;2024-03-29T10:40:38;99055.75;;;20.85;44.67
55187;BME280;55457;52.002;5.464;2024-03-29T10:43:04;99075.00;;;20.83;44.80
55187;BME280;55457;52.002;5.464;2024-03-29T10:45:32;99072.28;;;20.83;44.93
55187;BME280;55457;52.002;5.464;2024-03-29T10:47:58;99060.59;;;20.88;44.66
55187;BME280;55457;52.002;5.464;2024-03-29T10:50:25;99050.50;;;20.94;44.95
55187;BME280;55457;52.002;5.464;2024-03-29T10:52:51;99063.81;;;20.90;45.10
55187;BME280;55457;52.002;5.464;2024-03-29T10:55:19;99067.09;;;20.87;44.88
55187;BME280;55457;52.002;5.464;2024-03-29T10:57:46;99079.00;;;20.86;44.78
55187;BME280;55457;52.002;5.464;2024-03-29T11:00:13;99085.81;;;20.83;44.78
55187;BME280;55457;52.002;5.464;2024-03-29T11:02:57;99089.41;;;20.79;44.40
55187;BME280;55457;52.002;5.464;2024-03-29T11:05:28;99085.66;;;20.75;44.41
55187;BME280;55457;52.002;5.464;2024-03-29T11:07:55;99103.25;;;20.72;44.68
55187;BME280;55457;52.002;5.464;2024-03-29T11:10:32;99115.97;;;20.72;44.52
55187;BME280;55457;52.002;5.464;2024-03-29T11:13:12;99114.84;;;20.78;44.54
55187;BME280;55457;52.002;5.464;2024-03-29T11:15:41;99108.91;;;20.76;44.46
55187;BME280;55457;52.002;5.464;2024-03-29T11:18:09;99106.19;;;20.76;44.38
55187;BME280;55457;52.002;5.464;2024-03-29T11:20:35;99101.84;;;20.80;44.74
55187;BME280;55457;52.002;5.464;2024-03-29T11:23:09;99084.19;;;20.82;44.61
55187;BME280;55457;52.002;5.464;2024-03-29T11:25:42;99077.16;;;20.81;44.45
55187;BME280;55457;52.002;5.464;2024-03-29T11:28:08;99076.41;;;20.76;44.63
55187;BME280;55457;52.002;5.464;2024-03-29T11:30:47;99090.25;;;20.74;44.40
55187;BME280;55457;52.002;5.464;2024-03-29T11:33:56;99086.50;;;20.70;44.26
55187;BME280;55457;52.002;5.464;2024-03-29T11:36:21;99086.25;;;20.67;44.29
55187;BME280;55457;52.002;5.464;2024-03-29T11:38:51;99085.69;;;20.70;43.86
55187;BME280;55457;52.002;5.464;2024-03-29T11:41:18;99079.94;;;20.76;43.78
55187;BME280;55457;52.002;5.464;2024-03-29T11:43:44;99083.75;;;20.75;43.29
55187;BME280;55457;52.002;5.464;2024-03-29T11:46:11;99091.34;;;20.73;42.68
55187;BME280;55457;52.002;5.464;2024-03-29T11:48:37;99100.84;;;20.71;42.31
55187;BME280;55457;52.002;5.464;2024-03-29T11:51:05;99104.13;;;20.68;42.26
55187;BME280;55457;52.002;5.464;2024-03-29T11:53:31;99095.19;;;20.67;42.11
55187;BME280;55457;52.002;5.464;2024-03-29T11:55:58;99102.50;;;20.67;42.01
55187;BME280;55457;52.002;5.464;2024-03-29T11:58:24;99100.38;;;20.64;41.58
55187;BME280;55457;52.002;5.464;2024-03-29T12:00:51;99104.69;;;20.65;41.73
55187;BME280;55457;52.002;5.464;2024-03-29T12:03:17;99105.25;;;20.62;41.50
55187;BME280;55457;52.002;5.464;2024-03-29T12:05:44;99121.00;;;20.59;41.17
55187;BME280;55457;52.002;5.464;2024-03-29T12:08:10;99114.03;;;20.53;41.40
55187;BME280;55457;52.002;5.464;2024-03-29T12:10:36;99117.59;;;20.49;41.43
55187;BME280;55457;52.002;5.464;2024-03-29T12:13:04;99136.25;;;20.45;41.38
55187;BME280;55457;52.002;5.464;2024-03-29T12:15:29;99136.06;;;20.37;41.34
55187;BME280;55457;52.002;5.464;2024-03-29T12:18:01;99134.78;;;20.29;41.09
55187;BME280;55457;52.002;5.464;2024-03-29T12:20:31;99147.25;;;20.25;41.04
55187;BME280;55457;52.002;5.464;2024-03-29T12:23:00;99151.09;;;20.19;41.04
55187;BME280;55457;52.002;5.464;2024-03-29T12:25:30;99153.22;;;20.22;41.19
55187;BME280;55457;52.002;5.464;2024-03-29T12:27:56;99124.84;;;20.19;41.30
55187;BME280;55457;52.002;5.464;2024-03-29T12:30:22;99126.75;;;20.19;41.42
55187;BME280;55457;52.002;5.464;2024-03-29T12:32:48;99127.19;;;20.31;41.42
55187;BME280;55457;52.002;5.464;2024-03-29T12:35:15;99135.78;;;20.38;41.20
55187;BME280;55457;52.002;5.464;2024-03-29T12:37:50;99128.22;;;20.35;41.29
55187;BME280;55457;52.002;5.464;2024-03-29T12:40:17;99134.44;;;20.36;41.22
55187;BME280;55457;52.002;5.464;2024-03-29T12:42:51;99135.81;;;20.33;41.30
55187;BME280;55457;52.002;5.464;2024-03-29T12:45:18;99128.22;;;20.35;41.04
55187;BME280;55457;52.002;5.464;2024-03-29T12:47:44;99140.38;;;20.38;41.33
55187;BME280;55457;52.002;5.464;2024-03-29T12:50:13;99129.56;;;20.38;41.49
55187;BME280;55457;52.002;5.464;2024-03-29T12:52:40;99140.09;;;20.39;41.33
55187;BME280;55457;52.002;5.464;2024-03-29T12:55:06;99146.09;;;20.36;41.22
55187;BME280;55457;52.002;5.464;2024-03-29T12:57:33;99137.44;;;20.34;41.28